Time;durP1;ratioP1;P1;durP2;ratioP2;P2;SDS_P1;SDS_P2;PMS_P1;PMS_P2;Temp;Humidity;BMP_temperature;BMP_pressure;BME280_temperature;BME280_humidity;BME280_pressure;Samples;Min_cycle;Max_cycle;Signal;HPM_P1;HPM_P2
2022/03/06 00:02:20;;;;;;;10.10;3.38;;;;;;;5.35;100.00;102905.91;5089809;28;20059;-90
2022/03/06 00:04:47;;;;;;;8.20;2.90;;;;;;;5.18;100.00;102861.44;5092406;28;20048;-90
2022/03/06 00:07:14;;;;;;;8.15;2.72;;;;;;;5.14;100.00;102883.88;5072979;28;20383;-90
2022/03/06 00:09:41;;;;;;;10.30;3.30;;;;;;;5.06;100.00;102873.34;5073064;28;20070;-90
2022/03/06 00:12:08;;;;;;;10.27;3.00;;;;;;;5.04;100.00;102866.38;5088087;28;20048;-90
2022/03/06 00:14:34;;;;;;;13.27;4.15;;;;;;;5.02;100.00;102900.09;5091017;28;20048;-89
2022/03/06 00:17:01;;;;;;;10.70;3.95;;;;;;;4.69;100.00;102863.94;5090805;28;20046;-90
2022/03/06 00:19:28;;;;;;;15.73;4.70;;;;;;;4.69;100.00;102889.88;5091360;28;20044;-90
2022/03/06 00:21:55;;;;;;;12.35;3.72;;;;;;;4.44;100.00;102865.13;5084725;28;20078;-89
2022/03/06 00:24:22;;;;;;;12.05;4.93;;;;;;;4.72;100.00;102885.63;5092373;28;20063;-89
2022/03/06 00:26:48;;;;;;;14.20;3.58;;;;;;;4.74;100.00;102867.50;5091846;28;20048;-89
2022/03/06 00:29:15;;;;;;;12.32;3.35;;;;;;;4.82;100.00;102847.78;5082857;28;20048;-89
2022/03/06 00:31:42;;;;;;;11.45;3.38;;;;;;;4.71;100.00;102829.41;5085621;28;20051;-90
2022/03/06 00:34:09;;;;;;;9.60;3.15;;;;;;;5.03;100.00;102867.22;5090288;28;20044;-90
2022/03/06 00:36:37;;;;;;;9.30;3.30;;;;;;;4.92;100.00;102882.56;5091002;28;20048;-89
2022/03/06 00:39:05;;;;;;;14.77;3.42;;;;;;;5.26;100.00;102915.28;5069982;28;20058;-89
2022/03/06 00:41:32;;;;;;;9.15;3.08;;;;;;;4.96;100.00;102868.84;5087805;28;20141;-89
2022/03/06 00:43:59;;;;;;;12.85;3.10;;;;;;;5.09;100.00;102901.97;5091483;28;20052;-89
2022/03/06 00:46:25;;;;;;;12.82;3.50;;;;;;;4.85;100.00;102873.81;5090644;28;20048;-88
2022/03/06 00:48:52;;;;;;;13.40;4.28;;;;;;;4.25;100.00;102872.50;5091590;28;20048;-89
2022/03/06 00:51:19;;;;;;;10.38;4.35;;;;;;;4.40;100.00;102871.09;5083976;28;20051;-89
2022/03/06 00:53:46;;;;;;;12.68;3.15;;;;;;;4.77;100.00;102890.06;5070324;28;20053;-89
2022/03/06 00:56:13;;;;;;;10.80;3.30;;;;;;;4.81;100.00;102905.72;5076785;28;20055;-89
2022/03/06 00:58:40;;;;;;;8.95;3.50;;;;;;;4.65;100.00;102875.97;5093120;28;20409;-90
2022/03/06 01:01:06;;;;;;;10.93;2.90;;;;;;;4.65;100.00;102846.56;5085509;28;20425;-89
2022/03/06 01:03:34;;;;;;;7.75;2.97;;;;;;;4.86;100.00;102898.91;5098019;28;20052;-88
2022/03/06 01:06:01;;;;;;;9.52;3.10;;;;;;;4.66;100.00;102885.53;5098000;28;20138;-90
2022/03/06 01:08:28;;;;;;;7.22;2.42;;;;;;;4.57;100.00;102872.34;5097040;28;20488;-89
2022/03/06 01:10:55;;;;;;;10.00;2.47;;;;;;;4.56;100.00;102866.25;5105573;28;20797;-90
2022/03/06 01:13:22;;;;;;;12.95;3.05;;;;;;;4.73;100.00;102913.34;5099170;28;20052;-90
2022/03/06 01:15:49;;;;;;;10.23;3.15;;;;;;;4.54;100.00;102906.88;5099069;28;20050;-89
2022/03/06 01:18:16;;;;;;;10.48;3.17;;;;;;;4.58;100.00;102900.03;5117880;28;20050;-89
2022/03/06 01:20:42;;;;;;;10.95;3.17;;;;;;;4.44;100.00;102884.16;5110745;28;20050;-89
2022/03/06 01:23:10;;;;;;;8.85;2.70;;;;;;;4.47;100.00;102904.13;5098870;28;20095;-88
2022/03/06 01:25:36;;;;;;;8.18;2.70;;;;;;;4.24;100.00;102862.97;5097115;28;20060;-89
2022/03/06 01:28:04;;;;;;;10.20;3.30;;;;;;;4.45;100.00;102906.69;5097736;28;20487;-89
2022/03/06 01:30:31;;;;;;;9.52;2.75;;;;;;;4.22;100.00;102885.41;5096467;28;20048;-90
2022/03/06 01:33:00;;;;;;;9.88;3.15;;;;;;;4.23;100.00;102897.50;5098323;28;20086;-88
2022/03/06 01:35:27;;;;;;;11.15;3.13;;;;;;;3.97;100.00;102869.25;5100517;28;20052;-90
2022/03/06 01:37:53;;;;;;;8.82;3.00;;;;;;;4.18;100.00;102881.00;5119030;28;20521;-90
2022/03/06 01:40:20;;;;;;;12.60;2.45;;;;;;;4.03;100.00;102886.69;5104869;28;20051;-89
2022/03/06 01:42:49;;;;;;;11.27;2.90;;;;;;;4.35;100.00;102909.91;5098078;28;20055;-89
2022/03/06 01:45:19;;;;;;;9.30;2.53;;;;;;;4.45;100.00;102911.00;5097553;28;20048;-88
2022/03/06 01:47:49;;;;;;;10.10;3.55;;;;;;;4.07;100.00;102917.03;5096802;28;20131;-90
2022/03/06 01:50:25;;;;;;;11.18;3.03;;;;;;;3.76;100.00;102859.25;5084631;28;20056;-90
2022/03/06 01:52:53;;;;;;;8.48;2.92;;;;;;;4.07;100.00;102885.03;5097595;28;20501;-89
2022/03/06 01:55:24;;;;;;;14.18;3.35;;;;;;;4.22;100.00;102923.44;5100725;28;20047;-90
2022/03/06 01:57:57;;;;;;;10.48;3.20;;;;;;;4.01;100.00;102880.59;5078486;27;20052;-89
2022/03/06 02:00:26;;;;;;;9.73;3.40;;;;;;;4.17;100.00;102894.78;5079843;28;20047;-90
2022/03/06 02:02:54;;;;;;;14.18;3.72;;;;;;;4.08;100.00;102912.72;5086225;28;20497;-90
2022/03/06 02:05:21;;;;;;;9.27;3.72;;;;;;;3.95;100.00;102919.34;5096938;28;20508;-89
2022/03/06 02:07:48;;;;;;;10.90;3.75;;;;;;;3.60;100.00;102858.00;5092580;28;20050;-90
2022/03/06 02:10:15;;;;;;;9.50;3.33;;;;;;;3.73;100.00;102872.13;5088251;28;20131;-89
2022/03/06 02:12:44;;;;;;;11.00;3.28;;;;;;;4.03;100.00;102911.72;5092202;28;20058;-89
2022/03/06 02:15:13;;;;;;;12.52;3.22;;;;;;;4.15;100.00;102915.50;5110471;28;20052;-90
2022/03/06 02:17:40;;;;;;;9.70;3.35;;;;;;;4.20;100.00;102887.09;5094734;28;20467;-89
2022/03/06 02:20:09;;;;;;;8.07;2.78;;;;;;;4.11;100.00;102908.50;5110326;28;20048;-90
2022/03/06 02:22:39;;;;;;;10.50;3.47;;;;;;;3.91;100.00;102892.47;5106469;28;20086;-90
2022/03/06 02:25:13;;;;;;;11.88;3.05;;;;;;;3.72;100.00;102859.13;5094981;28;20050;-89
2022/03/06 02:27:41;;;;;;;8.93;2.78;;;;;;;3.96;100.00;102896.00;5113271;28;20493;-90
2022/03/06 02:30:10;;;;;;;11.75;2.65;;;;;;;4.06;100.00;102894.53;5112947;28;20048;-90
2022/03/06 02:32:38;;;;;;;10.52;2.63;;;;;;;3.78;100.00;102841.16;5092291;28;20048;-90
2022/03/06 02:35:07;;;;;;;10.35;2.83;;;;;;;4.12;100.00;102888.63;5091292;28;20501;-90
2022/03/06 02:37:35;;;;;;;7.35;2.33;;;;;;;4.07;100.00;102862.59;5088843;28;20041;-90
2022/03/06 02:40:05;;;;;;;8.27;2.72;;;;;;;4.34;100.00;102892.59;5081159;28;20070;-90
2022/03/06 02:42:34;;;;;;;13.93;2.80;;;;;;;4.31;100.00;102897.72;5081501;28;20143;-90
2022/03/06 02:45:11;;;;;;;7.93;2.30;;;;;;;4.43;100.00;102903.19;5089665;28;20148;-90
2022/03/06 02:47:39;;;;;;;7.70;2.53;;;;;;;4.05;100.00;102840.91;5085684;28;20066;-90
2022/03/06 02:50:09;;;;;;;9.00;2.33;;;;;;;4.06;100.00;102842.69;5092394;28;20584;-89
2022/03/06 02:52:36;;;;;;;9.15;2.58;;;;;;;4.13;100.00;102891.25;5089798;28;20087;-90
2022/03/06 02:55:04;;;;;;;6.55;1.73;;;;;;;4.21;100.00;102875.00;5091453;28;20044;-90
2022/03/06 02:57:31;;;;;;;7.85;2.47;;;;;;;3.92;100.00;102883.81;5095790;28;20044;-90
2022/03/06 02:59:58;;;;;;;9.13;2.20;;;;;;;3.90;100.00;102863.91;5093115;28;20442;-90
2022/03/06 03:02:25;;;;;;;7.47;2.60;;;;;;;4.13;100.00;102911.13;5089491;28;21026;-90
2022/03/06 03:04:52;;;;;;;9.73;2.20;;;;;;;4.18;100.00;102889.63;5092796;28;20048;-90
2022/03/06 03:07:18;;;;;;;8.77;2.40;;;;;;;4.17;100.00;102880.09;5093003;28;20044;-90
2022/03/06 03:09:45;;;;;;;7.90;2.17;;;;;;;4.17;100.00;102881.81;5091826;28;20048;-90
2022/03/06 03:12:12;;;;;;;8.40;2.40;;;;;;;4.13;100.00;102895.56;5091596;28;20064;-89
2022/03/06 03:14:38;;;;;;;7.20;2.42;;;;;;;3.61;100.00;102885.66;5094210;28;20075;-90
2022/03/06 03:17:06;;;;;;;11.82;3.15;;;;;;;3.66;100.00;102883.16;5109991;28;20489;-90
2022/03/06 03:19:35;;;;;;;7.85;2.13;;;;;;;3.71;100.00;102883.31;5092939;28;20054;-89
2022/03/06 03:22:03;;;;;;;9.68;2.10;;;;;;;3.93;100.00;102888.19;5091961;28;20508;-90
2022/03/06 03:24:30;;;;;;;8.65;2.13;;;;;;;4.06;100.00;102859.97;5092741;28;20044;-90
2022/03/06 03:26:56;;;;;;;8.05;2.00;;;;;;;4.26;100.00;102894.13;5084965;28;20135;-90
2022/03/06 03:29:23;;;;;;;7.53;2.53;;;;;;;4.18;100.00;102884.47;5071998;28;20478;-90
2022/03/06 03:31:50;;;;;;;6.70;2.25;;;;;;;4.19;100.00;102888.78;5088377;28;20055;-90
2022/03/06 03:34:17;;;;;;;9.38;2.53;;;;;;;3.66;100.00;102836.53;5092864;28;20447;-89
2022/03/06 03:36:44;;;;;;;5.85;2.10;;;;;;;4.18;100.00;102891.38;5092445;28;20059;-90
2022/03/06 03:39:11;;;;;;;6.13;2.00;;;;;;;4.27;100.00;102885.53;5093080;28;20047;-89
2022/03/06 03:41:38;;;;;;;12.43;2.55;;;;;;;3.95;100.00;102852.81;5078791;28;20053;-86
2022/03/06 03:44:05;;;;;;;9.05;2.20;;;;;;;4.10;100.00;102877.34;5071223;28;20048;-90
2022/03/06 03:46:32;;;;;;;10.05;2.47;;;;;;;3.73;100.00;102877.31;5089169;28;20508;-90
2022/03/06 03:48:59;;;;;;;9.80;2.70;;;;;;;3.03;100.00;102803.88;5071243;28;20045;-90
2022/03/06 03:51:26;;;;;;;7.95;2.28;;;;;;;3.50;100.00;102868.09;5100119;28;20062;-90
2022/03/06 03:53:53;;;;;;;9.15;2.47;;;;;;;3.62;100.00;102876.16;5092583;28;20048;-89
2022/03/06 03:56:22;;;;;;;9.68;2.80;;;;;;;3.61;100.00;102882.19;5092626;28;20052;-89
2022/03/06 03:58:50;;;;;;;5.85;1.95;;;;;;;3.55;100.00;102864.78;5091475;28;20079;-90
2022/03/06 04:01:17;;;;;;;8.50;2.47;;;;;;;3.41;100.00;102855.78;5091958;28;20050;-90
2022/03/06 04:03:45;;;;;;;9.63;3.20;;;;;;;3.24;100.00;102821.69;5096641;28;20048;-90
2022/03/06 04:06:12;;;;;;;7.03;1.90;;;;;;;3.80;100.00;102894.75;5112194;28;20053;-90
2022/03/06 04:08:39;;;;;;;7.28;2.17;;;;;;;3.80;100.00;102896.47;5101801;28;20037;-90
2022/03/06 04:11:06;;;;;;;4.95;1.77;;;;;;;3.84;100.00;102864.59;5101995;28;20071;-90
2022/03/06 04:13:32;;;;;;;5.65;2.13;;;;;;;3.98;100.00;102902.13;5091623;28;20062;-89
2022/03/06 04:16:00;;;;;;;5.05;1.73;;;;;;;3.99;100.00;102896.09;5093009;28;20060;-89
2022/03/06 04:18:27;;;;;;;9.90;2.10;;;;;;;4.17;100.00;102899.97;5084821;28;20048;-90
2022/03/06 04:20:53;;;;;;;6.93;2.03;;;;;;;3.68;100.00;102834.84;5077689;28;20054;-89
2022/03/06 04:23:20;;;;;;;8.73;2.60;;;;;;;3.58;100.00;102822.53;5091531;28;20052;-91
2022/03/06 04:25:47;;;;;;;6.10;2.13;;;;;;;3.95;100.00;102888.22;5090958;28;20048;-90
2022/03/06 04:28:14;;;;;;;7.47;2.03;;;;;;;3.71;100.00;102862.56;5091381;28;20052;-91
2022/03/06 04:30:41;;;;;;;9.60;2.00;;;;;;;3.74;100.00;102880.78;5090001;28;20048;-91
2022/03/06 04:33:08;;;;;;;6.47;2.20;;;;;;;3.58;100.00;102861.41;5091676;28;20048;-91
2022/03/06 04:35:34;;;;;;;6.38;1.88;;;;;;;3.79;100.00;102890.44;5081129;28;20059;-91
2022/03/06 04:38:01;;;;;;;5.13;1.73;;;;;;;3.92;100.00;102889.00;5071969;28;20072;-89
2022/03/06 04:40:28;;;;;;;9.73;1.98;;;;;;;3.94;100.00;102900.28;5072703;28;20045;-89
2022/03/06 04:42:54;;;;;;;8.50;2.25;;;;;;;3.67;100.00;102847.81;5091427;28;20056;-89
2022/03/06 04:45:24;;;;;;;6.00;1.60;;;;;;;3.91;100.00;102886.38;5092454;28;20054;-90
2022/03/06 04:47:51;;;;;;;5.68;1.73;;;;;;;3.94;100.00;102897.69;5107669;28;20044;-90
2022/03/06 04:50:18;;;;;;;11.48;2.55;;;;;;;3.75;100.00;102867.88;5090185;28;20080;-90
2022/03/06 04:52:50;;;;;;;5.32;1.90;;;;;;;3.97;100.00;102892.59;5091073;28;20052;-90
2022/03/06 04:55:17;;;;;;;6.53;1.92;;;;;;;4.08;100.00;102916.19;5101752;28;20052;-90
2022/03/06 04:57:46;;;;;;;5.68;1.60;;;;;;;3.80;100.00;102889.56;5111080;28;20485;-89
2022/03/06 05:00:15;;;;;;;6.78;1.80;;;;;;;3.86;100.00;102912.19;5108523;28;20047;-90
2022/03/06 05:02:42;;;;;;;5.30;1.83;;;;;;;3.60;100.00;102864.91;5091100;28;20474;-91
2022/03/06 05:05:10;;;;;;;7.93;1.80;;;;;;;3.77;100.00;102870.47;5107536;28;20490;-91
2022/03/06 05:07:37;;;;;;;5.97;1.75;;;;;;;3.99;100.00;102884.84;5107514;28;20139;-90
2022/03/06 05:10:11;;;;;;;8.80;2.67;;;;;;;4.04;100.00;102908.28;5090572;28;20140;-90
2022/03/06 05:12:40;;;;;;;3.80;1.60;;;;;;;3.71;100.00;102871.22;5090834;28;20048;-90
2022/03/06 05:15:09;;;;;;;7.90;2.33;;;;;;;3.95;100.00;102891.69;5107872;28;20142;-90
2022/03/06 05:17:37;;;;;;;6.32;2.05;;;;;;;3.77;100.00;102873.97;5108304;28;20408;-89
2022/03/06 05:20:04;;;;;;;6.10;1.75;;;;;;;4.09;100.00;102898.91;5091486;28;20575;-90
2022/03/06 05:22:31;;;;;;;10.98;1.83;;;;;;;3.89;100.00;102882.88;5091274;28;20083;-89
2022/03/06 05:24:58;;;;;;;6.30;1.63;;;;;;;3.47;100.00;102842.09;5108117;28;20500;-89
2022/03/06 05:27:26;;;;;;;7.72;1.85;;;;;;;3.78;100.00;102909.41;5091841;28;20052;-90
2022/03/06 05:29:53;;;;;;;6.60;2.05;;;;;;;3.68;100.00;102872.84;5091204;28;20062;-90
2022/03/06 05:32:20;;;;;;;12.68;2.63;;;;;;;3.36;100.00;102852.19;5089898;28;20048;-90
2022/03/06 05:34:46;;;;;;;7.10;1.95;;;;;;;3.73;100.00;102874.72;5106544;28;20134;-88
2022/03/06 05:37:13;;;;;;;8.65;2.17;;;;;;;3.65;100.00;102867.59;5090841;28;20056;-89
2022/03/06 05:39:40;;;;;;;8.55;2.45;;;;;;;3.90;100.00;102905.38;5090484;28;20482;-89
2022/03/06 05:42:07;;;;;;;8.05;2.00;;;;;;;3.08;100.00;102828.16;5092635;28;20457;-88
2022/03/06 05:44:34;;;;;;;6.40;1.92;;;;;;;3.52;100.00;102848.28;5094112;28;20044;-90
2022/03/06 05:47:00;;;;;;;6.63;1.92;;;;;;;3.92;100.00;102877.78;5094281;28;20048;-90
2022/03/06 05:49:27;;;;;;;7.20;2.10;;;;;;;3.82;100.00;102884.44;5091190;28;20123;-89
2022/03/06 05:51:54;;;;;;;5.60;1.83;;;;;;;3.85;100.00;102879.34;5089616;28;20123;-90
2022/03/06 05:54:21;;;;;;;7.07;1.75;;;;;;;3.88;100.00;102875.94;5094674;28;20050;-90
2022/03/06 05:56:47;;;;;;;5.25;1.83;;;;;;;3.72;100.00;102862.63;5094927;28;20048;-91
2022/03/06 05:59:14;;;;;;;5.80;1.88;;;;;;;3.64;100.00;102850.31;5094339;28;20086;-91
2022/03/06 06:01:41;;;;;;;8.15;2.53;;;;;;;3.75;100.00;102847.16;5079078;28;20839;-89
2022/03/06 06:04:08;;;;;;;5.30;1.58;;;;;;;3.78;100.00;102859.28;5074742;28;20071;-91
2022/03/06 06:06:35;;;;;;;5.53;1.83;;;;;;;3.64;100.00;102845.13;5075766;28;20049;-88
2022/03/06 06:09:01;;;;;;;8.18;2.08;;;;;;;3.34;100.00;102843.50;5073758;28;20044;-89
2022/03/06 06:11:28;;;;;;;7.90;1.77;;;;;;;3.54;100.00;102864.72;5106702;28;20165;-88
2022/03/06 06:13:55;;;;;;;5.53;1.83;;;;;;;3.58;100.00;102883.00;5091769;28;20051;-88
2022/03/06 06:16:22;;;;;;;6.13;1.88;;;;;;;3.36;100.00;102863.41;5093344;28;20070;-88
2022/03/06 06:18:49;;;;;;;4.40;1.60;;;;;;;3.26;100.00;102847.59;5093621;28;20079;-89
2022/03/06 06:21:18;;;;;;;9.88;2.10;;;;;;;3.30;100.00;102862.38;5092775;28;20052;-90
2022/03/06 06:23:45;;;;;;;6.75;2.13;;;;;;;3.01;100.00;102814.19;5094675;28;20519;-89
2022/03/06 06:26:17;;;;;;;7.50;2.80;;;;;;;3.56;100.00;102899.31;5109474;28;20481;-88
2022/03/06 06:28:44;;;;;;;5.65;1.70;;;;;;;3.57;100.00;102895.91;5091341;28;20054;-89
2022/03/06 06:31:11;;;;;;;7.40;1.90;;;;;;;3.64;100.00;102879.66;5108253;28;20051;-88
2022/03/06 06:33:38;;;;;;;6.63;2.95;;;;;;;3.21;100.00;102821.59;5096666;28;20066;-89
2022/03/06 06:36:06;;;;;;;8.38;2.05;;;;;;;3.43;100.00;102864.44;5093145;28;20062;-89
2022/03/06 06:38:32;;;;;;;4.88;2.00;;;;;;;3.13;100.00;102815.31;5093043;28;20136;-89
2022/03/06 06:40:59;;;;;;;7.45;2.13;;;;;;;3.43;100.00;102877.41;5091596;28;20050;-87
2022/03/06 06:43:29;;;;;;;10.57;2.55;;;;;;;3.39;100.00;102889.38;5092006;28;20058;-89
2022/03/06 06:45:56;;;;;;;8.45;1.92;;;;;;;2.97;100.00;102817.50;5093102;28;20052;-89
2022/03/06 06:48:23;;;;;;;5.97;2.17;;;;;;;3.22;100.00;102867.34;5093154;28;20466;-89
2022/03/06 06:50:50;;;;;;;9.52;2.30;;;;;;;3.39;100.00;102865.22;5087522;28;20040;-90
2022/03/06 06:53:17;;;;;;;7.70;1.90;;;;;;;3.31;100.00;102848.59;5092306;28;20465;-90
2022/03/06 06:55:44;;;;;;;8.60;2.17;;;;;;;3.31;100.00;102854.66;5092867;28;20048;-90
2022/03/06 06:58:10;;;;;;;5.72;1.83;;;;;;;3.06;100.00;102818.59;5092715;28;20048;-90
2022/03/06 07:00:37;;;;;;;7.30;2.15;;;;;;;3.45;100.00;102865.34;5092095;28;20466;-91
2022/03/06 07:03:04;;;;;;;6.32;2.03;;;;;;;3.55;100.00;102856.13;5094162;28;20059;-88
2022/03/06 07:05:31;;;;;;;7.75;2.33;;;;;;;3.52;100.00;102848.28;5093425;28;20051;-88
2022/03/06 07:07:58;;;;;;;6.05;1.70;;;;;;;3.61;100.00;102875.31;5094344;28;20552;-88
2022/03/06 07:10:25;;;;;;;6.20;1.80;;;;;;;3.59;100.00;102874.38;5092294;28;20043;-88
2022/03/06 07:12:54;;;;;;;8.50;1.80;;;;;;;3.65;100.00;102871.06;5092972;28;20416;-89
2022/03/06 07:15:28;;;;;;;5.22;1.65;;;;;;;3.86;100.00;102864.66;5093999;28;20102;-89
2022/03/06 07:17:59;;;;;;;4.57;1.83;;;;;;;3.86;100.00;102888.88;5094286;28;20058;-88
2022/03/06 07:20:27;;;;;;;4.20;1.88;;;;;;;3.94;100.00;102896.84;5092095;28;20536;-88
2022/03/06 07:22:54;;;;;;;6.57;1.75;;;;;;;3.68;100.00;102872.84;5089387;28;20056;-89
2022/03/06 07:25:22;;;;;;;6.55;2.00;;;;;;;3.70;100.00;102878.94;5089642;28;20839;-89
2022/03/06 07:27:49;;;;;;;7.85;2.33;;;;;;;3.64;100.00;102874.50;5103277;28;20051;-88
2022/03/06 07:30:16;;;;;;;11.27;2.55;;;;;;;3.57;100.00;102894.19;5091880;28;20044;-87
2022/03/06 07:32:51;;;;;;;8.93;2.45;;;;;;;3.39;100.00;102866.09;5092859;28;20058;-86
2022/03/06 07:35:20;;;;;;;8.40;1.98;;;;;;;3.65;100.00;102884.03;5092536;28;20054;-87
2022/03/06 07:37:48;;;;;;;7.40;2.70;;;;;;;3.60;100.00;102883.91;5092723;28;20052;-86
2022/03/06 07:40:16;;;;;;;6.07;2.53;;;;;;;3.74;100.00;102894.63;5091000;28;20417;-86
2022/03/06 07:42:43;;;;;;;7.03;2.15;;;;;;;3.79;100.00;102884.38;5072451;28;20192;-86
2022/03/06 07:45:11;;;;;;;7.65;3.20;;;;;;;5.01;100.00;102892.28;5092073;28;20078;-86
2022/03/06 07:47:38;;;;;;;10.02;2.70;;;;;;;5.57;100.00;102873.41;5091602;28;20054;-86
2022/03/06 07:50:07;;;;;;;11.43;2.53;;;;;;;5.83;100.00;102824.47;5091773;28;20036;-86
2022/03/06 07:52:35;;;;;;;7.78;2.53;;;;;;;6.25;100.00;102828.56;5090014;28;20043;-87
2022/03/06 07:55:03;;;;;;;9.45;2.42;;;;;;;6.64;100.00;102862.06;5095240;28;20405;-86
2022/03/06 07:57:29;;;;;;;11.27;2.35;;;;;;;7.32;100.00;102882.81;5108802;28;20052;-85
2022/03/06 07:59:56;;;;;;;7.45;2.05;;;;;;;7.21;100.00;102870.53;5107810;28;20051;-85
2022/03/06 08:02:23;;;;;;;7.68;2.00;;;;;;;7.18;100.00;102882.66;5107500;28;20130;-85
2022/03/06 08:04:50;;;;;;;5.10;1.77;;;;;;;7.49;100.00;102867.31;5091021;28;20056;-86
2022/03/06 08:07:17;;;;;;;6.88;2.53;;;;;;;7.67;100.00;102871.84;5091746;28;20123;-86
2022/03/06 08:09:44;;;;;;;7.55;3.30;;;;;;;7.72;100.00;102854.47;5090442;28;20044;-87
2022/03/06 08:12:11;;;;;;;7.95;2.35;;;;;;;7.46;100.00;102868.19;5089900;28;20047;-86
2022/03/06 08:14:37;;;;;;;8.00;2.55;;;;;;;6.95;100.00;102820.75;5089601;28;20126;-86
2022/03/06 08:17:05;;;;;;;9.23;3.00;;;;;;;6.32;100.00;102820.00;5070946;28;20539;-86
2022/03/06 08:19:31;;;;;;;8.77;2.50;;;;;;;6.49;100.00;102817.63;5083233;28;20048;-86
2022/03/06 08:21:58;;;;;;;8.00;2.35;;;;;;;6.88;100.00;102854.53;5090351;28;20486;-87
2022/03/06 08:24:25;;;;;;;8.35;2.92;;;;;;;7.12;100.00;102886.06;5091368;28;20052;-86
2022/03/06 08:26:52;;;;;;;8.40;2.40;;;;;;;7.15;100.00;102847.03;5107367;28;20052;-86
2022/03/06 08:29:18;;;;;;;7.93;2.22;;;;;;;7.77;100.00;102858.91;5105500;28;20040;-86
2022/03/06 08:31:51;;;;;;;11.00;2.60;;;;;;;7.54;100.00;102863.03;5090072;28;20470;-86
2022/03/06 08:34:18;;;;;;;9.90;2.65;;;;;;;7.44;100.00;102802.13;5091789;28;20123;-86
2022/03/06 08:36:44;;;;;;;7.43;1.83;;;;;;;8.52;100.00;102861.16;5108104;28;20058;-87
2022/03/06 08:39:11;;;;;;;7.35;2.40;;;;;;;8.27;98.78;102864.44;5076824;28;20568;-87
2022/03/06 08:41:38;;;;;;;6.22;1.85;;;;;;;8.62;96.74;102863.78;5089680;28;20048;-87
2022/03/06 08:44:05;;;;;;;11.43;2.30;;;;;;;8.50;95.51;102889.00;5098821;28;20130;-86
2022/03/06 08:46:37;;;;;;;9.57;2.50;;;;;;;8.86;94.13;102900.47;5092156;28;20044;-86
2022/03/06 08:49:04;;;;;;;12.35;2.55;;;;;;;8.98;94.22;102893.53;5088286;28;20082;-86
2022/03/06 08:51:32;;;;;;;5.68;2.00;;;;;;;8.35;96.19;102878.41;5090520;28;20470;-86
2022/03/06 08:54:00;;;;;;;6.10;2.20;;;;;;;8.55;97.23;102889.00;5090287;28;20044;-86
2022/03/06 08:56:27;;;;;;;5.63;1.92;;;;;;;9.18;89.23;102902.31;5085067;28;20052;-85
2022/03/06 08:58:54;;;;;;;8.57;2.15;;;;;;;9.11;88.88;102898.81;5070586;28;20098;-86
2022/03/06 09:01:22;;;;;;;9.25;2.20;;;;;;;9.68;87.52;102895.44;5080983;28;20058;-86
2022/03/06 09:03:49;;;;;;;6.85;1.75;;;;;;;9.91;89.20;102900.66;5091452;28;20143;-86
2022/03/06 09:06:16;;;;;;;6.65;1.98;;;;;;;9.47;86.71;102893.66;5091393;28;20059;-83
2022/03/06 09:08:43;;;;;;;5.00;1.65;;;;;;;9.72;84.46;102886.75;5090242;28;20805;-86
2022/03/06 09:11:10;;;;;;;5.00;1.70;;;;;;;9.25;86.46;102850.94;5091029;28;20075;-87
2022/03/06 09:13:36;;;;;;;6.88;1.83;;;;;;;9.12;84.51;102892.72;5107418;28;20526;-86
2022/03/06 09:16:04;;;;;;;6.80;2.20;;;;;;;9.53;87.45;102890.22;5093606;28;20044;-86
2022/03/06 09:18:31;;;;;;;8.20;1.80;;;;;;;9.52;85.53;102919.84;5095703;28;20047;-87
2022/03/06 09:20:58;;;;;;;7.68;2.08;;;;;;;9.15;85.72;102889.22;5093354;28;20127;-86
2022/03/06 09:23:25;;;;;;;6.38;1.95;;;;;;;9.17;88.39;102897.09;5083919;28;20052;-86
2022/03/06 09:25:51;;;;;;;10.18;2.30;;;;;;;9.29;88.00;102895.38;5094850;28;20470;-86
2022/03/06 09:28:18;;;;;;;6.30;2.03;;;;;;;9.52;88.53;102881.47;5095072;28;20479;-86
2022/03/06 09:30:45;;;;;;;8.90;2.42;;;;;;;9.37;85.70;102902.38;5089954;28;20040;-86
2022/03/06 09:33:12;;;;;;;8.68;2.10;;;;;;;8.91;87.22;102874.38;5094719;28;20052;-86
2022/03/06 09:35:39;;;;;;;5.53;1.75;;;;;;;9.52;87.58;102889.31;5091792;28;20052;-86
2022/03/06 09:38:06;;;;;;;8.38;2.33;;;;;;;9.48;86.10;102874.50;5092868;28;20436;-86
2022/03/06 09:40:33;;;;;;;7.80;2.45;;;;;;;9.72;87.01;102904.16;5091267;28;20054;-87
2022/03/06 09:43:00;;;;;;;7.68;1.80;;;;;;;9.73;84.42;102885.84;5094321;28;20044;-86
2022/03/06 09:45:33;;;;;;;6.57;1.70;;;;;;;9.71;85.50;102919.00;5087730;28;20052;-86
2022/03/06 09:48:00;;;;;;;6.25;2.08;;;;;;;9.91;85.53;102913.75;5108652;28;20058;-86
2022/03/06 09:50:27;;;;;;;6.70;1.70;;;;;;;9.44;86.34;102901.53;5092370;28;20044;-87
2022/03/06 09:52:54;;;;;;;7.32;2.05;;;;;;;9.86;84.26;102879.75;5093427;28;20062;-87
2022/03/06 09:55:21;;;;;;;6.32;1.70;;;;;;;10.16;85.06;102906.75;5095712;28;20135;-87
2022/03/06 09:57:55;;;;;;;5.60;2.20;;;;;;;10.28;82.53;102908.50;5094146;28;20055;-87
2022/03/06 10:00:22;;;;;;;10.52;2.20;;;;;;;10.38;82.15;102881.44;5092546;28;20123;-87
2022/03/06 10:02:53;;;;;;;6.20;2.40;;;;;;;10.15;81.93;102906.78;5089487;28;20052;-86
2022/03/06 10:05:37;;;;;;;9.13;2.17;;;;;;;10.23;81.85;102905.00;5093097;28;20052;-86
2022/03/06 10:08:16;;;;;;;11.80;2.20;;;;;;;10.39;81.62;102909.41;5104957;28;20493;-86
2022/03/06 10:10:45;;;;;;;8.63;2.78;;;;;;;9.96;80.28;102898.06;5093000;28;20040;-86
2022/03/06 10:13:21;;;;;;;7.40;2.00;;;;;;;10.16;83.98;102896.28;5094461;28;20127;-86
2022/03/06 10:15:57;;;;;;;9.30;2.00;;;;;;;10.02;83.75;102913.75;5092431;28;20051;-87
2022/03/06 10:18:24;;;;;;;5.45;1.60;;;;;;;10.25;80.86;102859.63;5093586;28;20102;-87
2022/03/06 10:20:51;;;;;;;9.45;2.40;;;;;;;10.63;79.36;102892.72;5091547;28;20040;-87
2022/03/06 10:23:26;;;;;;;7.47;1.63;;;;;;;10.78;79.15;102904.03;5092553;28;20131;-87
2022/03/06 10:26:04;;;;;;;7.07;1.77;;;;;;;10.55;77.50;102865.69;5090014;28;20526;-87
2022/03/06 10:28:41;;;;;;;10.90;1.73;;;;;;;10.61;76.67;102889.25;5086917;28;20044;-87
2022/03/06 10:31:08;;;;;;;3.78;1.30;;;;;;;11.10;77.77;102906.53;5092385;28;20050;-87
2022/03/06 10:33:35;;;;;;;6.75;1.95;;;;;;;10.98;75.45;102890.84;5089676;28;20048;-87
2022/03/06 10:36:02;;;;;;;6.20;1.52;;;;;;;10.99;76.57;102882.09;5091389;28;20051;-87
2022/03/06 10:38:33;;;;;;;8.25;2.42;;;;;;;11.20;77.08;102900.31;5092783;28;20048;-86
2022/03/06 10:41:12;;;;;;;9.32;2.13;;;;;;;10.54;77.06;102842.13;5092724;28;20672;-86
2022/03/06 10:43:40;;;;;;;6.93;2.08;;;;;;;10.85;79.76;102895.25;5092890;28;20070;-87
2022/03/06 10:46:13;;;;;;;9.50;2.45;;;;;;;11.04;81.14;102897.81;5094052;28;20052;-86
2022/03/06 10:48:43;;;;;;;9.00;2.40;;;;;;;10.27;85.66;102885.81;5092337;28;20048;-87
2022/03/06 10:51:12;;;;;;;10.95;2.40;;;;;;;10.59;84.35;102882.28;5086172;28;20044;-86
2022/03/06 10:53:39;;;;;;;8.45;2.45;;;;;;;10.62;83.39;102864.81;5091834;28;20091;-86
2022/03/06 10:56:15;;;;;;;7.90;2.00;;;;;;;11.18;83.52;102881.09;5089760;28;20777;-87
2022/03/06 10:58:46;;;;;;;10.73;2.45;;;;;;;11.06;82.42;102885.56;5091717;28;20504;-86
2022/03/06 11:01:26;;;;;;;6.25;2.03;;;;;;;11.56;80.90;102873.84;5090579;28;20048;-86
2022/03/06 11:03:57;;;;;;;8.85;2.08;;;;;;;11.25;78.16;102881.09;5092346;28;20375;-85
2022/03/06 11:06:25;;;;;;;7.25;1.75;;;;;;;11.65;78.11;102872.91;5093492;28;20095;-86
2022/03/06 11:08:53;;;;;;;6.18;1.85;;;;;;;11.42;76.88;102871.38;5091828;28;20044;-86
2022/03/06 11:11:21;;;;;;;7.80;2.15;;;;;;;11.83;76.41;102848.28;5091195;28;20091;-86
2022/03/06 11:13:48;;;;;;;7.80;2.00;;;;;;;11.81;73.90;102844.78;5092834;28;20482;-86
2022/03/06 11:16:15;;;;;;;7.97;2.30;;;;;;;12.31;74.24;102867.09;5092652;28;20086;-85
2022/03/06 11:18:43;;;;;;;7.90;2.00;;;;;;;12.41;74.69;102867.84;5092107;28;20387;-87
2022/03/06 11:21:10;;;;;;;7.47;1.90;;;;;;;11.65;74.56;102868.56;5090205;28;20047;-86
2022/03/06 11:23:41;;;;;;;8.43;2.35;;;;;;;11.53;74.61;102869.50;5092727;28;20048;-87
2022/03/06 11:26:17;;;;;;;6.72;1.70;;;;;;;11.66;74.20;102864.19;5091810;28;20474;-85
2022/03/06 11:28:50;;;;;;;11.77;2.00;;;;;;;11.59;73.39;102864.22;5090897;28;20048;-85